Time;durP1;ratioP1;P1;durP2;ratioP2;P2;SDS_P1;SDS_P2;PMS_P1;PMS_P2;Temp;Humidity;BMP_temperature;BMP_pressure;BME280_temperature;BME280_humidity;BME280_pressure;Samples;Min_cycle;Max_cycle;Signal;HPM_P1;HPM_P2
2023/12/16 00:01:24;;;;;;;14.80;6.63;;;;;;;-20.39;51.67;98519.59;6082786;29;20545;-66
2023/12/16 00:04:31;;;;;;;12.90;5.60;;;;;;;-20.46;52.12;98522.38;6083256;29;20044;-66
2023/12/16 00:07:33;;;;;;;12.07;5.95;;;;;;;-20.50;51.90;98515.34;6099653;29;20543;-66
2023/12/16 00:10:40;;;;;;;15.48;7.07;;;;;;;-20.67;51.81;98513.13;6099611;29;20056;-67
2023/12/16 00:13:42;;;;;;;10.90;5.32;;;;;;;-20.71;51.92;98518.66;6099018;29;20164;-66
2023/12/16 00:16:44;;;;;;;13.25;6.70;;;;;;;-20.75;52.66;98506.63;6098964;29;20048;-66
2023/12/16 00:19:46;;;;;;;14.70;5.53;;;;;;;-20.75;52.22;98507.50;6098840;29;20088;-66
2023/12/16 00:22:47;;;;;;;13.85;6.85;;;;;;;-20.78;52.27;98498.88;6099378;29;20403;-66
2023/12/16 00:25:53;;;;;;;18.65;5.65;;;;;;;-20.78;52.49;98502.25;6083058;29;20052;-67
2023/12/16 00:28:54;;;;;;;14.80;6.13;;;;;;;-20.88;52.66;98482.25;6082253;29;20154;-67
2023/12/16 00:31:56;;;;;;;13.25;6.10;;;;;;;-20.77;52.15;98490.59;6099245;29;20520;-66
2023/12/16 00:35:03;;;;;;;11.20;5.80;;;;;;;-20.77;51.95;98490.59;6099440;29;20048;-66
2023/12/16 00:38:04;;;;;;;16.65;7.47;;;;;;;-20.75;52.45;98496.63;6098809;29;20052;-66
2023/12/16 00:41:08;;;;;;;15.10;6.05;;;;;;;-20.74;52.46;98496.75;6102086;29;20048;-66
2023/12/16 00:44:13;;;;;;;17.10;5.93;;;;;;;-20.77;52.14;98493.09;6103670;29;20495;-66
2023/12/16 00:47:14;;;;;;;18.92;5.55;;;;;;;-20.71;52.33;98493.63;6086803;29;20048;-66
2023/12/16 00:50:18;;;;;;;16.83;6.95;;;;;;;-20.76;52.34;98487.38;6103365;29;20048;-66
2023/12/16 00:53:19;;;;;;;13.65;6.22;;;;;;;-20.78;51.95;98477.22;6102769;29;20048;-67
2023/12/16 00:56:23;;;;;;;10.57;6.60;;;;;;;-20.80;52.05;98472.84;6103837;29;20044;-66
2023/12/16 00:59:26;;;;;;;17.23;6.50;;;;;;;-20.78;52.21;98474.72;6102542;29;20411;-67
2023/12/16 01:02:29;;;;;;;15.32;7.32;;;;;;;-20.78;52.43;98471.34;6103283;29;20055;-66
2023/12/16 01:05:30;;;;;;;13.25;6.72;;;;;;;-20.76;52.49;98469.84;6102373;29;20550;-66
2023/12/16 01:08:35;;;;;;;17.38;6.47;;;;;;;-20.75;52.69;98469.97;6103134;29;20055;-67
2023/12/16 01:11:37;;;;;;;13.68;7.32;;;;;;;-20.73;52.61;98470.09;6085375;29;20158;-66
2023/12/16 01:14:41;;;;;;;14.57;6.72;;;;;;;-20.72;52.48;98484.34;6102773;29;20044;-66
2023/12/16 01:17:44;;;;;;;14.32;6.78;;;;;;;-20.74;52.26;98475.88;6086014;29;20051;-66
2023/12/16 01:20:48;;;;;;;21.73;7.22;;;;;;;-20.72;52.65;98486.84;6086340;29;20054;-66
2023/12/16 01:23:55;;;;;;;17.58;6.18;;;;;;;-20.69;52.63;98472.09;6071318;29;20537;-66
2023/12/16 01:26:58;;;;;;;14.45;6.00;;;;;;;-20.68;52.50;98468.84;6102762;29;20048;-66
2023/12/16 01:30:06;;;;;;;22.67;6.78;;;;;;;-20.69;52.77;98462.06;6102634;29;20466;-66
2023/12/16 01:33:13;;;;;;;14.48;6.53;;;;;;;-20.67;52.67;98476.47;6102336;29;20063;-67
2023/12/16 01:36:14;;;;;;;15.48;6.90;;;;;;;-20.64;52.73;98465.84;6085717;29;20056;-67
2023/12/16 01:39:15;;;;;;;23.63;7.43;;;;;;;-20.59;52.70;98459.56;6101922;29;20044;-66
2023/12/16 01:42:17;;;;;;;24.77;7.90;;;;;;;-20.63;52.15;98448.47;6102219;29;20055;-66
2023/12/16 01:45:19;;;;;;;17.25;8.23;;;;;;;-20.58;52.45;98456.31;6102132;29;20044;-67
2023/12/16 01:48:22;;;;;;;36.33;9.30;;;;;;;-20.63;52.43;98452.59;6102234;29;20048;-66
2023/12/16 01:51:27;;;;;;;27.13;9.32;;;;;;;-20.60;52.62;98447.84;6083697;29;20059;-66
2023/12/16 01:54:28;;;;;;;32.88;9.18;;;;;;;-20.61;52.67;98446.06;6101765;29;20541;-66
2023/12/16 01:57:36;;;;;;;22.15;8.13;;;;;;;-20.57;51.96;98443.06;6101256;29;20055;-65
2023/12/16 02:00:41;;;;;;;23.63;7.78;;;;;;;-20.55;52.50;98438.16;6084732;29;20055;-66
2023/12/16 02:03:46;;;;;;;17.30;6.88;;;;;;;-20.49;52.35;98432.00;6101745;29;20490;-66
2023/12/16 02:06:51;;;;;;;19.75;7.88;;;;;;;-20.50;52.17;98416.84;6101786;29;20075;-66
2023/12/16 02:09:55;;;;;;;13.57;7.60;;;;;;;-20.47;52.04;98419.59;6101671;29;20046;-66
2023/12/16 02:12:57;;;;;;;20.00;7.10;;;;;;;-20.42;51.90;98425.84;6101741;29;20051;-67
2023/12/16 02:15:58;;;;;;;16.00;7.65;;;;;;;-20.46;52.14;98414.72;6101327;29;20052;-66
2023/12/16 02:19:01;;;;;;;28.05;8.00;;;;;;;-20.46;52.20;98409.72;6101494;29;20040;-67
2023/12/16 02:22:02;;;;;;;39.45;15.68;;;;;;;-20.47;52.24;98410.47;6100697;29;20091;-67
2023/12/16 02:25:07;;;;;;;24.80;9.30;;;;;;;-20.53;52.45;98414.16;6100969;29;20044;-65
2023/12/16 02:28:09;;;;;;;21.45;9.20;;;;;;;-20.62;52.26;98415.16;6101482;29;20051;-67
2023/12/16 02:31:12;;;;;;;17.58;8.40;;;;;;;-20.67;51.89;98420.56;6101292;29;20056;-66
2023/12/16 02:34:17;;;;;;;29.88;13.27;;;;;;;-20.75;52.68;98427.44;6100991;29;20048;-66
2023/12/16 02:37:21;;;;;;;19.50;9.73;;;;;;;-20.80;52.05;98422.81;6101341;29;20584;-66
2023/12/16 02:40:25;;;;;;;18.55;8.52;;;;;;;-20.82;52.56;98424.34;6101266;29;20047;-66
2023/12/16 02:43:27;;;;;;;18.55;9.50;;;;;;;-20.83;52.51;98418.44;6083581;29;20052;-67
2023/12/16 02:46:30;;;;;;;20.33;9.77;;;;;;;-20.85;52.49;98420.81;6100874;29;20040;-66
2023/12/16 02:49:34;;;;;;;20.17;9.05;;;;;;;-20.94;52.51;98410.09;6100571;29;20048;-66
2023/12/16 02:52:38;;;;;;;18.45;8.70;;;;;;;-20.83;52.87;98422.56;6083276;29;20056;-66
2023/12/16 02:55:39;;;;;;;20.33;9.68;;;;;;;-20.83;52.88;98417.56;6100670;29;20039;-67
2023/12/16 02:58:41;;;;;;;28.05;10.93;;;;;;;-20.82;52.96;98415.19;6100394;29;20153;-66
2023/12/16 03:01:45;;;;;;;22.35;10.98;;;;;;;-20.86;52.42;98406.59;6083627;29;20510;-66
2023/12/16 03:04:46;;;;;;;27.13;11.95;;;;;;;-20.83;52.58;98413.44;6082933;29;20074;-66
2023/12/16 03:07:48;;;;;;;20.53;8.87;;;;;;;-20.78;52.36;98416.31;6099977;29;20200;-67
2023/12/16 03:10:50;;;;;;;26.58;9.30;;;;;;;-20.87;52.65;98392.31;6083234;29;20056;-66
2023/12/16 03:13:51;;;;;;;22.48;9.27;;;;;;;-20.76;52.80;98410.69;6099686;29;20055;-65
2023/12/16 03:16:58;;;;;;;27.25;8.68;;;;;;;-20.76;52.76;98402.31;6100349;29;20422;-66
2023/12/16 03:20:00;;;;;;;26.00;9.85;;;;;;;-20.80;52.56;98395.28;6100145;29;20043;-66
2023/12/16 03:23:01;;;;;;;30.75;10.50;;;;;;;-20.80;52.38;98387.78;6099514;29;20139;-66
2023/12/16 03:26:06;;;;;;;25.92;10.55;;;;;;;-20.78;52.80;98402.16;6099490;29;20056;-66
2023/12/16 03:29:10;;;;;;;24.75;10.82;;;;;;;-20.86;52.59;98378.16;6100077;29;20052;-66
2023/12/16 03:32:14;;;;;;;27.10;10.95;;;;;;;-20.88;52.88;98385.56;6100171;29;20044;-66
2023/12/16 03:35:17;;;;;;;25.98;11.77;;;;;;;-20.86;53.02;98394.06;6082478;29;20063;-66
2023/12/16 03:38:19;;;;;;;39.97;10.95;;;;;;;-20.93;52.77;98381.81;6099891;29;20081;-65
2023/12/16 03:41:21;;;;;;;35.42;13.68;;;;;;;-20.94;52.65;98380.06;6100393;29;20598;-66
2023/12/16 03:44:24;;;;;;;38.40;17.58;;;;;;;-20.91;53.21;98392.81;6099752;29;20052;-67
2023/12/16 03:47:31;;;;;;;62.97;25.50;;;;;;;-20.90;53.26;98402.06;6099990;29;20048;-66
2023/12/16 03:50:37;;;;;;;49.53;21.20;;;;;;;-20.92;52.82;98401.06;6099944;29;20044;-66
2023/12/16 03:53:39;;;;;;;59.08;23.83;;;;;;;-21.04;52.88;98380.06;6099090;29;20048;-66
2023/12/16 03:56:43;;;;;;;52.28;21.83;;;;;;;-20.89;52.75;98396.31;6099609;29;20563;-67
2023/12/16 03:59:47;;;;;;;56.22;21.45;;;;;;;-20.87;53.00;98401.44;6099362;29;20064;-67
2023/12/16 04:02:48;;;;;;;49.60;18.48;;;;;;;-20.88;52.50;98387.19;6082606;29;20043;-67
2023/12/16 04:05:49;;;;;;;43.20;18.52;;;;;;;-20.82;53.43;98379.31;6099700;29;20055;-66
2023/12/16 04:08:50;;;;;;;29.17;16.02;;;;;;;-20.79;53.42;98382.06;6082051;29;20059;-66
2023/12/16 04:11:54;;;;;;;42.95;18.65;;;;;;;-20.80;53.14;98383.69;6099718;29;20040;-66
2023/12/16 04:14:55;;;;;;;52.90;22.67;;;;;;;-20.78;53.30;98387.16;6100786;29;20225;-67
2023/12/16 04:17:57;;;;;;;59.00;26.08;;;;;;;-20.76;53.26;98394.81;6086428;29;20052;-67
2023/12/16 04:21:01;;;;;;;70.60;25.17;;;;;;;-20.73;52.94;98395.03;6086698;29;20425;-67
2023/12/16 04:24:05;;;;;;;62.25;24.67;;;;;;;-20.70;52.75;98395.28;6104054;29;20048;-66
2023/12/16 04:27:06;;;;;;;59.97;23.45;;;;;;;-20.68;52.97;98393.78;6103227;29;20056;-66
2023/12/16 04:30:11;;;;;;;56.33;20.92;;;;;;;-20.70;52.88;98393.66;6103211;29;20055;-67
2023/12/16 04:33:12;;;;;;;69.60;23.17;;;;;;;-20.66;52.40;98398.16;6103470;29;20052;-66
2023/12/16 04:36:17;;;;;;;56.47;21.55;;;;;;;-20.59;53.10;98389.50;6103619;29;20060;-65
2023/12/16 04:39:21;;;;;;;64.38;22.23;;;;;;;-20.55;52.60;98389.00;6103480;29;20044;-66
2023/12/16 04:42:23;;;;;;;55.97;21.20;;;;;;;-20.44;53.09;98398.19;6103014;29;20438;-66
2023/12/16 04:45:24;;;;;;;60.45;22.30;;;;;;;-20.36;52.93;98402.94;6103360;29;20071;-66
2023/12/16 04:48:28;;;;;;;56.45;23.17;;;;;;;-20.31;52.54;98399.16;6103765;29;20039;-66
2023/12/16 04:51:29;;;;;;;48.40;21.90;;;;;;;-20.24;52.47;98398.88;6102947;29;20036;-67
2023/12/16 04:54:33;;;;;;;64.05;29.65;;;;;;;-20.21;52.29;98394.09;6086521;29;20418;-66
2023/12/16 04:57:35;;;;;;;44.58;18.10;;;;;;;-20.10;52.28;98398.31;6102993;29;20153;-66
2023/12/16 05:00:36;;;;;;;51.45;17.27;;;;;;;-20.03;52.06;98394.69;6102719;29;20521;-67
2023/12/16 05:03:41;;;;;;;40.95;16.02;;;;;;;-19.97;52.41;98386.00;6102957;29;20048;-68
2023/12/16 05:06:44;;;;;;;33.22;14.27;;;;;;;-19.88;52.14;98384.97;6102903;29;20068;-66
2023/12/16 05:09:45;;;;;;;38.45;15.68;;;;;;;-19.77;51.92;98387.53;6102091;29;20507;-67
2023/12/16 05:12:49;;;;;;;240.38;88.43;;;;;;;-19.78;52.40;98357.34;6102827;29;20044;-66
2023/12/16 05:15:53;;;;;;;45.35;18.80;;;;;;;-19.58;52.02;98371.38;6102830;29;20043;-67
2023/12/16 05:18:55;;;;;;;46.35;18.52;;;;;;;-19.51;52.19;98371.91;6101741;29;20078;-66
2023/12/16 05:21:56;;;;;;;75.30;38.35;;;;;;;-19.41;51.48;98370.13;6101923;29;20052;-66
2023/12/16 05:25:02;;;;;;;65.00;28.90;;;;;;;-19.34;51.94;98357.25;6102710;29;20044;-67
2023/12/16 05:28:04;;;;;;;51.58;22.58;;;;;;;-19.19;52.15;98343.34;6086013;29;20458;-66
2023/12/16 05:31:06;;;;;;;48.67;23.85;;;;;;;-19.07;51.96;98348.41;6101817;29;20056;-66
2023/12/16 05:34:10;;;;;;;62.88;26.00;;;;;;;-18.95;51.85;98353.44;6102588;29;20380;-67
2023/12/16 05:37:14;;;;;;;46.42;17.92;;;;;;;-18.83;51.41;98349.28;6102262;29;20092;-66
2023/12/16 05:40:15;;;;;;;72.45;29.20;;;;;;;-18.73;51.53;98341.63;6102167;29;20034;-68
2023/12/16 05:43:16;;;;;;;73.15;28.38;;;;;;;-18.62;51.31;98340.78;6102527;29;20044;-66
2023/12/16 05:46:18;;;;;;;81.13;27.77;;;;;;;-18.60;51.81;98325.81;6101249;29;20052;-67
2023/12/16 05:49:19;;;;;;;69.60;24.70;;;;;;;-18.31;51.21;98347.06;6101494;29;20052;-67
2023/12/16 05:52:20;;;;;;;71.47;28.15;;;;;;;-18.18;51.22;98345.53;6101807;29;20438;-67
2023/12/16 05:55:26;;;;;;;81.53;33.63;;;;;;;-18.09;50.73;98344.41;6101972;29;20044;-67
2023/12/16 05:58:30;;;;;;;82.05;32.90;;;;;;;-17.97;50.79;98341.13;6101684;29;20059;-66
2023/12/16 06:01:31;;;;;;;79.22;30.08;;;;;;;-17.82;51.08;98347.97;6102044;29;20043;-67
2023/12/16 06:04:33;;;;;;;74.38;31.58;;;;;;;-17.70;50.85;98336.19;6101790;29;20055;-67
2023/12/16 06:07:34;;;;;;;66.85;29.63;;;;;;;-17.59;50.70;98337.81;6101765;29;20055;-67
2023/12/16 06:10:38;;;;;;;69.68;29.48;;;;;;;-17.45;50.54;98349.66;6101484;29;20044;-67
2023/12/16 06:13:42;;;;;;;64.65;27.80;;;;;;;-17.25;50.73;98353.50;6101606;29;20076;-67
2023/12/16 06:16:46;;;;;;;72.65;27.90;;;;;;;-17.13;50.50;98343.38;6101369;29;20043;-67
2023/12/16 06:19:47;;;;;;;67.15;30.35;;;;;;;-16.98;50.49;98341.00;6100667;29;20048;-66
2023/12/16 06:22:52;;;;;;;60.63;28.65;;;;;;;-16.86;50.55;98339.28;6100805;29;20065;-66
2023/12/16 06:25:58;;;;;;;64.70;31.13;;;;;;;-16.87;50.46;98322.41;6101188;29;20047;-67
2023/12/16 06:28:59;;;;;;;86.72;33.45;;;;;;;-16.71;50.46;98334.31;6100323;29;20233;-66
2023/12/16 06:32:01;;;;;;;72.50;31.45;;;;;;;-16.67;50.74;98335.38;6100976;29;20184;-68
2023/12/16 06:35:05;;;;;;;96.50;31.23;;;;;;;-16.59;50.76;98334.22;6101551;29;20083;-67
2023/12/16 06:38:06;;;;;;;178.77;76.38;;;;;;;-16.64;50.82;98310.38;6099696;29;20430;-67
2023/12/16 06:41:11;;;;;;;72.95;37.40;;;;;;;-16.37;50.76;98316.31;6100752;29;20039;-67
2023/12/16 06:44:15;;;;;;;63.28;32.00;;;;;;;-16.07;50.80;98323.25;6100783;29;20036;-66
2023/12/16 06:47:21;;;;;;;63.05;26.70;;;;;;;-15.85;50.65;98320.41;6100539;29;20048;-66
2023/12/16 06:50:25;;;;;;;61.45;26.15;;;;;;;-15.63;50.15;98319.13;6099674;29;20434;-67
2023/12/16 06:53:27;;;;;;;58.53;26.42;;;;;;;-15.39;50.07;98304.56;6100292;29;20188;-66
2023/12/16 06:56:28;;;;;;;63.25;26.58;;;;;;;-15.06;49.66;98308.16;6100483;29;20047;-66
2023/12/16 06:59:32;;;;;;;59.40;27.27;;;;;;;-14.61;49.56;98301.44;6099951;29;20052;-66
2023/12/16 07:02:43;;;;;;;62.30;25.23;;;;;;;-14.16;49.11;98297.16;6100374;29;20074;-67
2023/12/16 07:05:44;;;;;;;64.78;24.77;;;;;;;-13.67;48.40;98302.31;6099997;29;20210;-67
2023/12/16 07:08:47;;;;;;;67.00;27.60;;;;;;;-13.22;47.79;98295.28;6099272;29;20160;-68
2023/12/16 07:11:49;;;;;;;61.97;25.87;;;;;;;-12.80;47.36;98277.06;6100442;29;20418;-67
2023/12/16 07:14:55;;;;;;;52.45;25.20;;;;;;;-12.36;46.91;98284.28;6100301;29;20044;-67
2023/12/16 07:17:59;;;;;;;58.28;24.73;;;;;;;-11.92;46.12;98280.38;6100577;29;20503;-68
2023/12/16 07:21:06;;;;;;;60.42;25.17;;;;;;;-11.49;45.62;98274.66;6100146;29;20530;-68
2023/12/16 07:24:08;;;;;;;54.63;24.77;;;;;;;-11.09;45.00;98283.97;6099310;29;20063;-67
2023/12/16 07:27:12;;;;;;;;;;;;;;;-10.68;44.46;98272.09;6100474;29;20047;-66
2023/12/16 07:30:16;;;;;;;60.78;27.00;;;;;;;-10.38;43.82;98274.16;6100114;29;20313;-67
2023/12/16 07:33:26;;;;;;;59.72;24.20;;;;;;;-10.03;43.88;98270.38;6099941;29;20040;-68
2023/12/16 07:36:27;;;;;;;57.35;25.30;;;;;;;-9.61;43.30;98245.63;6100072;29;20044;-68
2023/12/16 07:39:34;;;;;;;45.70;21.52;;;;;;;-8.92;42.86;98255.69;6099754;29;20155;-66
2023/12/16 07:42:39;;;;;;;50.88;21.92;;;;;;;-8.36;41.99;98248.13;6099733;29;20036;-66
2023/12/16 07:45:42;;;;;;;46.75;22.80;;;;;;;-7.60;40.65;98248.69;6099853;29;20054;-67
2023/12/16 07:48:44;;;;;;;54.75;23.73;;;;;;;-7.05;39.79;98250.19;6083359;29;20050;-66
2023/12/16 07:51:45;;;;;;;50.08;22.45;;;;;;;-6.80;39.38;98244.88;6104027;29;20059;-67
2023/12/16 07:54:50;;;;;;;45.05;21.35;;;;;;;-6.75;39.89;98241.56;6088082;29;20044;-67
2023/12/16 07:57:54;;;;;;;43.35;20.30;;;;;;;-6.85;39.45;98238.78;6103499;29;20048;-67
2023/12/16 08:00:55;;;;;;;57.22;23.95;;;;;;;-6.30;39.41;98246.09;6103954;29;20046;-67
2023/12/16 08:03:57;;;;;;;81.03;32.50;;;;;;;-4.83;37.49;98238.84;6104269;29;20040;-67
2023/12/16 08:07:03;;;;;;;65.25;30.65;;;;;;;-4.06;35.69;98226.38;6103737;29;20044;-67
2023/12/16 08:10:08;;;;;;;52.25;26.73;;;;;;;-4.23;35.65;98225.25;6104079;29;20047;-67
2023/12/16 08:13:12;;;;;;;59.67;23.40;;;;;;;-4.80;36.37;98226.91;6103966;29;20047;-68
2023/12/16 08:16:18;;;;;;;50.38;21.55;;;;;;;-5.19;36.40;98230.47;6103944;29;20048;-67
2023/12/16 08:19:19;;;;;;;46.13;20.50;;;;;;;-5.15;36.20;98231.41;6103879;29;20055;-67
2023/12/16 08:22:22;;;;;;;44.25;19.52;;;;;;;-4.93;35.54;98216.38;6103775;29;20044;-67
2023/12/16 08:25:26;;;;;;;43.67;19.08;;;;;;;-4.37;35.40;98219.03;6103888;29;20131;-67
2023/12/16 08:28:28;;;;;;;45.47;18.05;;;;;;;-3.87;34.65;98204.34;6103978;29;20476;-66
2023/12/16 08:31:29;;;;;;;55.33;20.02;;;;;;;-3.45;34.03;98199.75;6103379;29;20055;-67
2023/12/16 08:34:33;;;;;;;48.78;20.10;;;;;;;-3.45;33.85;98197.19;6103520;29;20044;-67
2023/12/16 08:37:40;;;;;;;43.75;21.38;;;;;;;-3.00;33.21;98198.50;6103316;29;20044;-66
2023/12/16 08:40:45;;;;;;;51.95;20.88;;;;;;;-2.21;32.53;98189.72;6103584;29;20048;-68
2023/12/16 08:43:49;;;;;;;37.70;19.10;;;;;;;-1.51;31.62;98174.63;6086517;29;20048;-68
2023/12/16 08:46:50;;;;;;;46.75;20.40;;;;;;;-0.94;30.05;98162.72;6086345;29;20043;-67
2023/12/16 08:49:54;;;;;;;47.10;21.88;;;;;;;-1.01;30.81;98165.31;6103178;29;20048;-67
2023/12/16 08:52:57;;;;;;;49.17;20.90;;;;;;;0.78;29.43;98167.56;6103450;29;20048;-67
2023/12/16 08:56:01;;;;;;;46.60;20.48;;;;;;;3.65;27.20;98166.19;6103348;29;20172;-67
2023/12/16 08:59:08;;;;;;;51.25;21.42;;;;;;;5.77;24.86;98176.56;6103103;29;20646;-68
2023/12/16 09:02:12;;;;;;;50.13;24.17;;;;;;;7.02;24.10;98163.66;6102932;29;20051;-68
2023/12/16 09:05:13;;;;;;;;;;;;;;;8.15;23.92;98159.09;6103656;29;20044;-67
2023/12/16 09:08:19;;;;;;;52.10;23.48;;;;;;;8.46;23.20;98153.66;6102869;29;19923;-68
2023/12/16 09:11:23;;;;;;;48.72;23.88;;;;;;;8.66;22.54;98152.09;6102895;29;20048;-68
2023/12/16 09:14:27;;;;;;;61.65;27.27;;;;;;;8.76;22.40;98150.84;6102896;29;20064;-68
2023/12/16 09:17:33;;;;;;;68.72;29.42;;;;;;;8.86;22.00;98146.09;6102686;29;20044;-68
2023/12/16 09:20:35;;;;;;;67.63;37.17;;;;;;;9.05;21.66;98138.38;6102386;29;20415;-66
2023/12/16 09:23:40;;;;;;;83.30;42.88;;;;;;;8.21;20.90;98132.69;6102185;29;20573;-67
2023/12/16 09:26:43;;;;;;;86.22;45.80;;;;;;;6.36;22.74;98135.91;6101688;29;20063;-67
2023/12/16 09:29:48;;;;;;;105.13;45.78;;;;;;;5.21;23.63;98137.06;6102555;29;20426;-66
2023/12/16 09:32:52;;;;;;;92.75;43.38;;;;;;;2.69;24.84;98139.00;6102617;29;20429;-68
2023/12/16 09:35:56;;;;;;;96.05;47.67;;;;;;;-0.41;26.76;98136.88;6101572;29;20063;-67
2023/12/16 09:38:57;;;;;;;100.13;45.33;;;;;;;-2.83;29.33;98130.00;6101330;29;20521;-68
2023/12/16 09:42:04;;;;;;;99.90;48.30;;;;;;;-4.54;31.32;98111.75;6102076;29;20052;-66
2023/12/16 09:45:06;;;;;;;97.20;44.17;;;;;;;-5.85;32.99;98119.78;6101825;29;20063;-67
2023/12/16 09:48:08;;;;;;;86.18;41.10;;;;;;;-6.84;33.42;98115.13;6101871;29;20463;-67
2023/12/16 09:51:13;;;;;;;103.35;40.38;;;;;;;-7.42;33.68;98100.03;6101895;29;20513;-67
2023/12/16 09:54:17;;;;;;;96.18;40.30;;;;;;;-7.55;33.56;98097.19;6101964;29;20044;-67
2023/12/16 09:57:21;;;;;;;95.90;41.55;;;;;;;-7.31;33.98;98086.69;6101147;29;20067;-67
2023/12/16 10:00:30;;;;;;;104.40;41.83;;;;;;;-6.01;32.39;98087.88;6101857;29;20514;-66
2023/12/16 10:03:35;;;;;;;92.53;38.03;;;;;;;-4.90;30.73;98090.66;6101106;29;20537;-67
2023/12/16 10:06:39;;;;;;;113.95;41.85;;;;;;;-5.07;30.17;98083.53;6101946;29;20051;-67
2023/12/16 10:09:45;;;;;;;96.55;42.05;;;;;;;-5.71;30.38;98079.88;6101581;29;20052;-67
2023/12/16 10:12:50;;;;;;;98.68;40.22;;;;;;;-6.47;31.65;98074.97;6099731;29;20055;-66
2023/12/16 10:15:54;;;;;;;110.07;41.25;;;;;;;-7.03;32.73;98077.13;6101516;29;20108;-68
2023/12/16 10:18:58;;;;;;;91.13;39.70;;;;;;;-7.39;33.42;98065.19;6101603;29;20044;-67
2023/12/16 10:22:05;;;;;;;90.43;38.90;;;;;;;-7.69;33.79;98071.25;6100900;29;20052;-67
2023/12/16 10:25:13;;;;;;;92.78;36.50;;;;;;;-8.03;33.93;98068.63;6084678;29;20048;-69
2023/12/16 10:28:19;;;;;;;94.53;35.15;;;;;;;-8.29;34.34;98063.69;6101240;29;20044;-67
2023/12/16 10:31:26;;;;;;;89.70;33.47;;;;;;;-8.43;34.90;98062.47;6100965;29;20044;-66
2023/12/16 10:34:33;;;;;;;74.53;30.88;;;;;;;-8.71;34.89;98056.53;6100662;29;20096;-67
2023/12/16 10:37:47;;;;;;;78.82;28.77;;;;;;;-9.01;35.46;98045.41;6100774;29;20092;-66
2023/12/16 10:40:52;;;;;;;72.18;26.60;;;;;;;-9.20;35.35;98055.03;6100630;29;20059;-67
2023/12/16 10:43:54;;;;;;;63.72;23.33;;;;;;;-9.13;35.33;98056.09;6100787;29;20073;-67
2023/12/16 10:46:55;;;;;;;61.45;21.98;;;;;;;-8.95;35.52;98060.88;6099214;29;20052;-67
2023/12/16 10:50:02;;;;;;;60.33;21.90;;;;;;;-8.79;34.91;98058.00;6100530;29;20056;-67
2023/12/16 10:53:12;;;;;;;50.90;18.80;;;;;;;-8.68;35.16;98061.72;6100675;29;20051;-67
2023/12/16 10:56:25;;;;;;;44.50;18.63;;;;;;;-8.72;35.24;98052.25;6100300;29;20062;-67
2023/12/16 10:59:35;;;;;;;43.95;17.55;;;;;;;-8.83;34.92;98051.06;6099858;29;20143;-66
2023/12/16 11:02:54;;;;;;;51.40;18.63;;;;;;;-8.99;35.15;98043.78;6100350;29;20055;-67
2023/12/16 11:06:21;;;;;;;51.45;19.30;;;;;;;-9.28;35.54;98039.50;6100748;29;20052;-67
2023/12/16 11:09:26;;;;;;;53.38;18.77;;;;;;;-9.60;36.11;98046.09;6100233;29;20043;-68
2023/12/16 11:12:29;;;;;;;62.20;21.50;;;;;;;-9.99;36.84;98043.09;6100571;29;20051;-66
2023/12/16 11:15:32;;;;;;;61.67;23.63;;;;;;;-10.34;37.16;98045.31;6100147;29;20200;-68
2023/12/16 11:18:36;;;;;;;85.85;27.13;;;;;;;-10.76;37.88;98047.16;6099991;29;20081;-67
2023/12/16 11:21:45;;;;;;;88.30;34.97;;;;;;;-11.23;38.45;98036.94;6100144;29;20514;-67
2023/12/16 11:24:53;;;;;;;114.95;44.80;;;;;;;-11.53;39.24;98044.19;6083266;29;20538;-67
2023/12/16 11:28:01;;;;;;;124.82;45.90;;;;;;;-11.86;39.81;98031.03;6100162;29;20048;-66
2023/12/16 11:31:03;;;;;;;114.57;44.65;;;;;;;-12.04;40.47;98051.44;6099437;29;20055;-66
2023/12/16 11:34:07;;;;;;;111.88;45.83;;;;;;;-12.24;40.96;98038.78;6099336;29;20168;-67
2023/12/16 11:37:11;;;;;;;103.25;41.47;;;;;;;-12.49;41.45;98033.44;6099383;29;20056;-67
2023/12/16 11:40:39;;;;;;;101.53;37.50;;;;;;;-12.62;42.49;98046.38;6098982;29;20044;-67
2023/12/16 11:43:47;;;;;;;102.35;37.92;;;;;;;-12.85;43.05;98041.16;6099596;29;20052;-66
2023/12/16 11:46:49;;;;;;;95.45;37.08;;;;;;;-13.06;42.24;98036.00;6099301;29;20414;-67
2023/12/16 11:49:52;;;;;;;103.78;37.63;;;;;;;-13.23;42.76;98032.69;6098544;29;20593;-67
2023/12/16 11:52:59;;;;;;;104.13;37.80;;;;;;;-13.39;43.10;98030.25;6099476;29;20119;-67
2023/12/16 11:56:00;;;;;;;111.15;41.05;;;;;;;-13.53;43.19;98031.28;6098820;29;20155;-67
2023/12/16 11:59:07;;;;;;;107.82;36.25;;;;;;;-13.71;43.21;98036.34;6098879;29;20434;-67
2023/12/16 12:02:11;;;;;;;111.03;38.10;;;;;;;-13.91;43.64;98012.63;6099399;29;20449;-67
2023/12/16 12:05:15;;;;;;;;;;;;;;;-13.98;43.60;98020.69;6099809;29;20055;-66
2023/12/16 12:08:19;;;;;;;112.70;38.50;;;;;;;-14.16;43.58;98020.66;6098964;29;20012;-66
2023/12/16 12:11:20;;;;;;;115.25;35.60;;;;;;;-14.28;44.26;98021.78;6098792;29;20060;-68
2023/12/16 12:14:22;;;;;;;85.15;31.15;;;;;;;-14.38;44.59;98019.56;6099532;29;20514;-66
2023/12/16 12:17:28;;;;;;;92.25;31.92;;;;;;;-14.51;44.95;98017.25;6098797;29;20052;-66
2023/12/16 12:20:31;;;;;;;80.47;30.80;;;;;;;-14.63;44.82;97999.84;6099370;29;20052;-66
2023/12/16 12:23:40;;;;;;;93.25;32.42;;;;;;;-14.70;45.17;98000.28;6098774;29;20515;-67
2023/12/16 12:26:45;;;;;;;85.78;30.23;;;;;;;-14.85;45.58;98002.03;6098967;29;20140;-67
2023/12/16 12:29:56;;;;;;;121.25;44.85;;;;;;;-14.95;46.19;98014.16;6098551;29;20375;-66
2023/12/16 12:33:01;;;;;;;145.63;50.80;;;;;;;-15.09;45.77;98005.00;6098624;29;20056;-67
2023/12/16 12:36:03;;;;;;;147.23;54.17;;;;;;;-15.21;45.90;98005.22;6099702;29;20532;-67
2023/12/16 12:39:13;;;;;;;127.80;44.83;;;;;;;-15.41;46.71;97981.44;6102068;29;20052;-67
2023/12/16 12:42:15;;;;;;;105.85;36.30;;;;;;;-15.55;46.50;97963.84;6103429;29;20063;-67
2023/12/16 12:45:28;;;;;;;111.30;41.83;;;;;;;-15.41;47.91;97991.53;6102866;29;20422;-66
2023/12/16 12:48:29;;;;;;;137.95;49.90;;;;;;;-15.45;47.08;97987.13;6102528;29;20426;-66
2023/12/16 12:51:31;;;;;;;139.85;48.50;;;;;;;-15.50;47.14;97983.50;6103233;29;20067;-66
2023/12/16 12:54:44;;;;;;;167.90;59.03;;;;;;;-15.54;48.42;97974.00;6102915;29;20479;-66
2023/12/16 12:57:50;;;;;;;159.90;61.05;;;;;;;-15.69;47.50;97951.38;6103084;29;20051;-67
2023/12/16 13:01:04;;;;;;;146.68;58.45;;;;;;;-15.59;47.70;97969.50;6103141;29;20052;-67
2023/12/16 13:04:08;;;;;;;172.80;54.53;;;;;;;-15.65;47.88;97975.06;6103218;29;20055;-66
2023/12/16 13:07:12;;;;;;;98.75;37.78;;;;;;;-15.73;48.14;97961.25;6103121;29;20055;-67
2023/12/16 13:10:14;;;;;;;89.47;32.60;;;;;;;-15.74;47.81;97969.56;6103194;29;20071;-67
2023/12/16 13:13:19;;;;;;;94.32;36.33;;;;;;;-15.81;48.12;97972.56;6103252;29;20063;-67
2023/12/16 13:16:23;;;;;;;115.03;41.53;;;;;;;-15.89;48.37;97972.13;6102579;29;20051;-67
2023/12/16 13:19:31;;;;;;;151.10;55.33;;;;;;;-15.97;48.37;97968.31;6102627;29;20051;-67
2023/12/16 13:22:37;;;;;;;122.47;48.72;;;;;;;-16.03;48.50;97965.47;6102290;29;20063;-67
2023/12/16 13:25:39;;;;;;;117.50;46.83;;;;;;;-16.13;48.83;97964.94;6102464;29;20048;-67
2023/12/16 13:28:43;;;;;;;114.78;47.33;;;;;;;-16.21;48.86;97962.78;6102284;29;20183;-67
2023/12/16 13:31:47;;;;;;;93.00;38.55;;;;;;;-16.31;49.03;97964.75;6102522;29;20506;-67
2023/12/16 13:34:53;;;;;;;82.00;33.65;;;;;;;-16.36;49.16;97967.81;6102395;29;20409;-67
2023/12/16 13:37:57;;;;;;;69.13;26.15;;;;;;;-16.42;48.96;97975.88;6102164;29;20060;-67
2023/12/16 13:41:02;;;;;;;71.05;26.35;;;;;;;-16.49;48.50;97968.78;6102273;29;20528;-67
2023/12/16 13:44:03;;;;;;;63.00;25.27;;;;;;;-16.68;48.94;97945.81;6102063;29;20075;-67
2023/12/16 13:47:04;;;;;;;79.68;26.80;;;;;;;-16.67;48.52;97967.69;6101784;29;20055;-67
2023/12/16 13:50:09;;;;;;;61.35;24.48;;;;;;;-16.68;48.19;97976.03;6102014;29;20442;-67
2023/12/16 13:53:11;;;;;;;55.83;23.25;;;;;;;-16.69;47.88;97974.31;6101910;29;20518;-67
2023/12/16 13:56:12;;;;;;;57.72;22.90;;;;;;;-16.69;47.78;97965.09;6102159;29;20048;-67
2023/12/16 13:59:15;;;;;;;65.57;24.17;;;;;;;-16.62;47.36;97971.34;6101500;29;20058;-66
2023/12/16 14:02:19;;;;;;;49.78;22.27;;;;;;;-16.56;47.28;97961.63;6101885;29;20127;-67